createdAt,value
2024-04-13T00:00:10.287Z,0
2024-04-13T00:01:26.000Z,0
2024-04-13T00:02:42.902Z,0
2024-04-13T00:03:59.185Z,0
2024-04-13T00:05:15.457Z,0
2024-04-13T00:06:30.759Z,0
2024-04-13T00:07:47.052Z,0
2024-04-13T00:09:03.373Z,0
2024-04-13T00:10:19.647Z,0
2024-04-13T00:11:35.963Z,0
2024-04-13T00:12:52.232Z,0
2024-04-13T00:14:08.514Z,0
2024-04-13T00:15:24.837Z,0
2024-04-13T00:16:41.103Z,0
2024-04-13T00:17:57.398Z,0
2024-04-13T00:19:13.680Z,0
2024-04-13T00:20:29.988Z,0
2024-04-13T00:21:46.277Z,0
2024-04-13T00:23:01.586Z,0
2024-04-13T00:24:17.909Z,0
2024-04-13T00:25:34.170Z,0
2024-04-13T00:26:50.449Z,0
2024-04-13T00:28:06.785Z,0
2024-04-13T00:29:23.037Z,0
2024-04-13T00:30:39.346Z,0
2024-04-13T00:31:55.657Z,0
2024-04-13T00:33:11.950Z,0
2024-04-13T00:34:28.246Z,0
2024-04-13T00:35:44.550Z,0
2024-04-13T00:37:00.802Z,0
2024-04-13T00:38:17.096Z,0
2024-04-13T00:39:32.409Z,0
2024-04-13T00:40:48.726Z,0
2024-04-13T00:42:05.026Z,0
2024-04-13T00:43:21.307Z,0
2024-04-13T00:44:37.606Z,0
2024-04-13T00:45:53.869Z,0
2024-04-13T00:47:10.185Z,0
2024-04-13T00:48:26.442Z,0
2024-04-13T00:49:42.774Z,0
2024-04-13T00:50:59.035Z,0
2024-04-13T00:52:15.328Z,0
2024-04-13T00:53:31.634Z,0
2024-04-13T00:54:47.923Z,0
2024-04-13T00:56:03.255Z,0
2024-04-13T00:57:19.523Z,0
2024-04-13T00:58:35.814Z,0
2024-04-13T00:59:52.145Z,0
2024-04-13T01:01:08.000Z,0
2024-04-13T01:02:24.000Z,0
2024-04-13T01:03:41.017Z,0
2024-04-13T01:04:57.316Z,0
2024-04-13T01:06:13.567Z,0
2024-04-13T01:07:29.863Z,0
2024-04-13T01:08:46.152Z,0
2024-04-13T01:10:02.000Z,0
2024-04-13T01:11:18.775Z,0
2024-04-13T01:12:34.087Z,0
2024-04-13T01:13:50.380Z,0
2024-04-13T01:15:06.676Z,0
2024-04-13T01:16:22.961Z,0
2024-04-13T01:17:39.268Z,0
2024-04-13T01:18:55.547Z,0
2024-04-13T01:20:11.811Z,0
2024-04-13T01:21:28.133Z,0
2024-04-13T01:22:44.386Z,0
2024-04-13T01:24:00.679Z,0
2024-04-13T01:25:17.000Z,0
2024-04-13T01:26:33.267Z,0
2024-04-13T01:27:49.599Z,0
2024-04-13T01:29:04.877Z,0
2024-04-13T01:30:21.208Z,0
2024-04-13T01:31:37.471Z,0
2024-04-13T01:32:53.788Z,0
2024-04-13T01:34:10.048Z,0
2024-04-13T01:35:26.342Z,0
2024-04-13T01:36:42.628Z,0
2024-04-13T01:37:58.933Z,0
2024-04-13T01:39:15.227Z,0
2024-04-13T01:40:31.512Z,0
2024-04-13T01:41:47.848Z,0
2024-04-13T01:43:04.101Z,0
2024-04-13T01:44:20.432Z,0
2024-04-13T01:45:35.742Z,0
2024-04-13T01:46:51.992Z,0
2024-04-13T01:48:08.329Z,0
2024-04-13T01:49:24.628Z,0
2024-04-13T01:50:40.890Z,0
2024-04-13T01:51:57.176Z,0
2024-04-13T01:53:13.000Z,0
2024-04-13T01:54:29.758Z,0
2024-04-13T01:55:46.091Z,0
2024-04-13T01:57:02.386Z,0
2024-04-13T01:58:18.644Z,0
2024-04-13T01:59:34.967Z,0
2024-04-13T02:00:51.263Z,0
2024-04-13T02:02:06.527Z,0
2024-04-13T02:03:22.834Z,0
2024-04-13T02:04:39.165Z,0
2024-04-13T02:05:55.415Z,0
2024-04-13T02:07:11.705Z,0
2024-04-13T02:08:28.039Z,0
2024-04-13T02:09:44.305Z,0
2024-04-13T02:11:00.636Z,0
2024-04-13T02:12:16.889Z,0
2024-04-13T02:13:33.181Z,0
2024-04-13T02:14:49.518Z,0
2024-04-13T02:16:05.804Z,0
2024-04-13T02:17:22.056Z,0
2024-04-13T02:18:37.412Z,0
2024-04-13T02:19:53.704Z,0
2024-04-13T02:21:09.992Z,0
2024-04-13T02:22:26.284Z,0
2024-04-13T02:23:42.583Z,0
2024-04-13T02:24:58.848Z,0
2024-04-13T02:26:15.128Z,0
2024-04-13T02:27:31.431Z,0
2024-04-13T02:28:47.721Z,0
2024-04-13T02:30:04.045Z,0
2024-04-13T02:31:20.346Z,0
2024-04-13T02:32:36.601Z,0
2024-04-13T02:33:52.885Z,0
2024-04-13T02:35:08.241Z,0
2024-04-13T02:36:24.543Z,0
2024-04-13T02:37:40.832Z,0
2024-04-13T02:38:57.000Z,0
2024-04-13T02:40:13.379Z,0
2024-04-13T02:41:29.664Z,0
2024-04-13T02:42:46.015Z,0
2024-04-13T02:44:02.306Z,0
2024-04-13T02:45:18.556Z,0
2024-04-13T02:46:34.895Z,0
2024-04-13T02:47:51.134Z,0
2024-04-13T02:49:07.438Z,0
2024-04-13T02:50:23.764Z,0
2024-04-13T02:51:40.135Z,0
2024-04-13T02:52:56.476Z,0
2024-04-13T02:54:12.776Z,0
2024-04-13T02:55:29.032Z,0
2024-04-13T02:56:45.362Z,0
2024-04-13T02:58:01.612Z,0
2024-04-13T02:59:17.950Z,0
2024-04-13T03:00:34.197Z,0
2024-04-13T03:01:50.541Z,0
2024-04-13T03:03:06.789Z,0
2024-04-13T03:04:23.090Z,0
2024-04-13T03:05:39.411Z,0
2024-04-13T03:06:55.710Z,0
2024-04-13T03:08:11.017Z,0
2024-04-13T03:09:27.276Z,0
2024-04-13T03:10:43.575Z,0
2024-04-13T03:11:59.856Z,0
2024-04-13T03:13:16.190Z,0
2024-04-13T03:14:32.484Z,0
2024-04-13T03:15:48.742Z,0
2024-04-13T03:17:05.075Z,0
2024-04-13T03:18:21.334Z,0
2024-04-13T03:19:37.619Z,0
2024-04-13T03:20:53.967Z,0
2024-04-13T03:22:10.215Z,0
2024-04-13T03:23:26.500Z,0
2024-04-13T03:24:41.817Z,0
2024-04-13T03:25:58.117Z,0
2024-04-13T03:27:14.441Z,0
2024-04-13T03:28:30.691Z,0
2024-04-13T03:29:46.986Z,0
2024-04-13T03:31:03.322Z,0
2024-04-13T03:32:18.638Z,0
2024-04-13T03:33:34.898Z,0
2024-04-13T03:34:51.193Z,0
2024-04-13T03:36:07.491Z,0
2024-04-13T03:37:23.773Z,0
2024-04-13T03:38:40.069Z,0
2024-04-13T03:39:56.353Z,0
2024-04-13T03:41:12.668Z,0
2024-04-13T03:42:28.996Z,0
2024-04-13T03:43:45.248Z,0
2024-04-13T03:45:01.587Z,0
2024-04-13T03:46:17.826Z,0
2024-04-13T03:47:34.000Z,0
2024-04-13T03:48:49.441Z,0
2024-04-13T03:50:05.726Z,0
2024-04-13T03:51:22.014Z,0
2024-04-13T03:52:38.271Z,1
2024-04-13T03:53:54.507Z,1
2024-04-13T03:55:10.748Z,1
2024-04-13T03:56:27.059Z,0
2024-04-13T03:57:43.333Z,0
2024-04-13T03:58:59.641Z,2
2024-04-13T04:00:15.824Z,2
2024-04-13T04:01:32.113Z,1
2024-04-13T04:02:48.351Z,1
2024-04-13T04:04:04.545Z,2
2024-04-13T04:05:19.862Z,4
2024-04-13T04:06:36.064Z,3
2024-04-13T04:07:52.000Z,5
2024-04-13T04:09:08.580Z,4
2024-04-13T04:10:24.819Z,1
2024-04-13T04:11:41.012Z,3
2024-04-13T04:12:57.308Z,4
2024-04-13T04:14:13.546Z,9
2024-04-13T04:15:29.788Z,7
2024-04-13T04:16:45.972Z,11
2024-04-13T04:18:02.211Z,13
2024-04-13T04:19:18.498Z,13
2024-04-13T04:20:34.741Z,15
2024-04-13T04:21:49.945Z,17
2024-04-13T04:23:06.238Z,19
2024-04-13T04:24:22.482Z,26
2024-04-13T04:25:38.714Z,27
2024-04-13T04:26:54.925Z,29
2024-04-13T04:28:11.164Z,25
2024-04-13T04:29:27.401Z,31
2024-04-13T04:30:43.682Z,28
2024-04-13T04:31:59.919Z,31
2024-04-13T04:33:16.167Z,34
2024-04-13T04:34:32.393Z,40
2024-04-13T04:35:48.586Z,43
2024-04-13T04:37:04.834Z,43
2024-04-13T04:38:20.084Z,46
2024-04-13T04:39:36.376Z,50
2024-04-13T04:40:52.572Z,58
2024-04-13T04:42:08.797Z,59
2024-04-13T04:43:25.091Z,67
2024-04-13T04:44:41.287Z,73
2024-04-13T04:45:57.000Z,79
2024-04-13T04:47:13.757Z,82
2024-04-13T04:48:30.000Z,85
2024-04-13T04:49:46.249Z,93
2024-04-13T04:51:02.484Z,99
2024-04-13T04:52:18.769Z,103
2024-04-13T04:53:34.968Z,110
2024-04-13T04:54:50.266Z,117
2024-04-13T04:56:06.453Z,123
2024-04-13T04:57:22.747Z,124
2024-04-13T04:58:38.982Z,131
2024-04-13T04:59:55.229Z,134
2024-04-13T05:01:11.467Z,141
2024-04-13T05:02:27.664Z,148
2024-04-13T05:03:43.893Z,155
2024-04-13T05:05:00.148Z,157
2024-04-13T05:06:16.430Z,165
2024-04-13T05:07:32.628Z,165
2024-04-13T05:08:48.853Z,172
2024-04-13T05:10:05.141Z,185
2024-04-13T05:11:20.353Z,192
2024-04-13T05:12:36.595Z,200
2024-04-13T05:13:52.878Z,208
2024-04-13T05:15:09.123Z,216
2024-04-13T05:16:25.315Z,226
2024-04-13T05:17:41.604Z,233
2024-04-13T05:18:57.791Z,239
2024-04-13T05:20:14.078Z,248
2024-04-13T05:21:30.325Z,257
2024-04-13T05:22:46.557Z,267
2024-04-13T05:24:02.751Z,272
2024-04-13T05:25:19.002Z,283
2024-04-13T05:26:35.227Z,291
2024-04-13T05:27:50.481Z,298
2024-04-13T05:29:06.773Z,314
2024-04-13T05:30:22.962Z,313
2024-04-13T05:31:39.215Z,320
2024-04-13T05:32:55.439Z,321
2024-04-13T05:34:11.678Z,333
2024-04-13T05:35:27.924Z,324
2024-04-13T05:36:44.218Z,335
2024-04-13T05:38:00.401Z,362
2024-04-13T05:39:16.638Z,377
2024-04-13T05:40:32.885Z,345
2024-04-13T05:41:49.173Z,370
2024-04-13T05:43:05.361Z,363
2024-04-13T05:44:20.625Z,354
2024-04-13T05:45:36.913Z,329
2024-04-13T05:46:53.096Z,367
2024-04-13T05:48:09.400Z,352
2024-04-13T05:49:25.588Z,341
2024-04-13T05:50:41.809Z,353
2024-04-13T05:51:58.049Z,338
2024-04-13T05:53:14.303Z,334
2024-04-13T05:54:30.593Z,372
2024-04-13T05:55:46.774Z,365
2024-04-13T05:57:03.012Z,390
2024-04-13T05:58:19.301Z,359
2024-04-13T05:59:35.490Z,307
2024-04-13T06:00:50.000Z,410
2024-04-13T06:02:06.997Z,375
2024-04-13T06:03:23.233Z,384
2024-04-13T06:04:39.462Z,374
2024-04-13T06:05:55.701Z,389
2024-04-13T06:07:12.004Z,431
2024-04-13T06:08:28.234Z,384
2024-04-13T06:09:44.422Z,403
2024-04-13T06:11:00.670Z,411
2024-04-13T06:12:16.897Z,422
2024-04-13T06:13:33.138Z,425
2024-04-13T06:14:49.000Z,445
2024-04-13T06:16:05.680Z,441
2024-04-13T06:17:20.933Z,466
2024-04-13T06:18:37.178Z,406
2024-04-13T06:19:53.362Z,481
2024-04-13T06:21:09.603Z,450
2024-04-13T06:22:25.843Z,488
2024-04-13T06:23:42.074Z,488
2024-04-13T06:24:58.376Z,495
2024-04-13T06:26:14.555Z,509
2024-04-13T06:27:30.844Z,520
2024-04-13T06:28:47.041Z,539
2024-04-13T06:30:03.263Z,548
2024-04-13T06:31:19.560Z,538
2024-04-13T06:32:35.758Z,581
2024-04-13T06:33:52.120Z,579
2024-04-13T06:35:08.343Z,492
2024-04-13T06:36:24.644Z,499
2024-04-13T06:37:40.823Z,555
2024-04-13T06:38:57.070Z,569
2024-04-13T06:40:13.366Z,583
2024-04-13T06:41:29.546Z,600
2024-04-13T06:42:45.850Z,588
2024-04-13T06:44:02.022Z,586
2024-04-13T06:45:18.319Z,569
2024-04-13T06:46:34.506Z,629
2024-04-13T06:47:50.804Z,639
2024-04-13T06:49:06.984Z,579
2024-04-13T06:50:22.225Z,604
2024-04-13T06:51:38.475Z,539
2024-04-13T06:52:54.717Z,498
2024-04-13T06:54:11.009Z,447
2024-04-13T06:55:27.193Z,602
2024-04-13T06:56:43.427Z,661
2024-04-13T06:57:59.661Z,495
2024-04-13T06:59:15.897Z,614
2024-04-13T07:00:32.145Z,626
2024-04-13T07:01:48.438Z,684
2024-04-13T07:03:04.621Z,666
2024-04-13T07:04:20.918Z,631
2024-04-13T07:05:37.103Z,666
2024-04-13T07:06:52.344Z,598
2024-04-13T07:08:08.643Z,614
2024-04-13T07:09:24.836Z,602
2024-04-13T07:10:41.078Z,590
2024-04-13T07:11:57.358Z,591
2024-04-13T07:13:13.551Z,563
2024-04-13T07:14:29.000Z,609
2024-04-13T07:15:46.074Z,620
2024-04-13T07:17:02.323Z,562
2024-04-13T07:18:18.497Z,600
2024-04-13T07:19:34.794Z,565
2024-04-13T07:20:51.046Z,561
2024-04-13T07:22:07.223Z,525
2024-04-13T07:23:22.528Z,673
2024-04-13T07:24:38.761Z,669
2024-04-13T07:25:54.953Z,582
2024-04-13T07:27:11.181Z,564
2024-04-13T07:28:27.482Z,622
2024-04-13T07:29:43.724Z,614
2024-04-13T07:30:59.896Z,571
2024-04-13T07:32:16.150Z,592
2024-04-13T07:33:32.431Z,579
2024-04-13T07:34:48.670Z,546
2024-04-13T07:36:04.868Z,517
2024-04-13T07:37:21.090Z,657
2024-04-13T07:38:37.328Z,592
2024-04-13T07:39:52.647Z,499
2024-04-13T07:41:08.829Z,689
2024-04-13T07:42:25.117Z,529
2024-04-13T07:43:41.358Z,597
2024-04-13T07:44:57.552Z,626
2024-04-13T07:46:13.841Z,699
2024-04-13T07:47:29.096Z,561
2024-04-13T07:48:45.335Z,543
2024-04-13T07:50:01.000Z,578
2024-04-13T07:51:17.749Z,644
2024-04-13T07:52:34.053Z,694
2024-04-13T07:53:50.226Z,650
2024-04-13T07:55:06.000Z,565
2024-04-13T07:56:22.766Z,632
2024-04-13T07:57:38.951Z,585
2024-04-13T07:58:55.178Z,553
2024-04-13T08:00:11.425Z,646
2024-04-13T08:01:27.719Z,574
2024-04-13T08:02:43.961Z,714
2024-04-13T08:03:59.153Z,592
2024-04-13T08:05:15.449Z,664
2024-04-13T08:06:31.689Z,598
2024-04-13T08:07:47.867Z,634
2024-04-13T08:09:04.162Z,643
2024-04-13T08:10:20.348Z,669
2024-04-13T08:11:36.595Z,669
2024-04-13T08:12:52.894Z,666
2024-04-13T08:14:09.056Z,677
2024-04-13T08:15:25.308Z,679
2024-04-13T08:16:41.596Z,741
2024-04-13T08:17:57.770Z,693
2024-04-13T08:19:14.021Z,742
2024-04-13T08:20:29.330Z,764
2024-04-13T08:21:45.564Z,816
2024-04-13T08:23:01.745Z,785
2024-04-13T08:24:17.998Z,806
2024-04-13T08:25:34.287Z,847
2024-04-13T08:26:50.517Z,835
2024-04-13T08:28:06.699Z,877
2024-04-13T08:29:22.935Z,850
2024-04-13T08:30:39.174Z,851
2024-04-13T08:31:55.475Z,924
2024-04-13T08:33:11.719Z,869
2024-04-13T08:34:27.900Z,932
2024-04-13T08:35:44.201Z,884
2024-04-13T08:36:59.384Z,914
2024-04-13T08:38:15.626Z,938
2024-04-13T08:39:31.921Z,915
2024-04-13T08:40:48.174Z,920
2024-04-13T08:42:04.333Z,920
2024-04-13T08:43:20.647Z,901
2024-04-13T08:44:36.881Z,899
2024-04-13T08:45:53.052Z,883
2024-04-13T08:47:09.351Z,891
2024-04-13T08:48:25.526Z,887
2024-04-13T08:49:41.762Z,923
2024-04-13T08:50:58.006Z,916
2024-04-13T08:52:14.306Z,1012
2024-04-13T08:53:29.503Z,1064
2024-04-13T08:54:45.741Z,881
2024-04-13T08:56:02.046Z,968
2024-04-13T08:57:18.279Z,1029
2024-04-13T08:58:34.449Z,1220
2024-04-13T08:59:50.698Z,813
2024-04-13T09:01:06.989Z,968
2024-04-13T09:02:23.179Z,1344
2024-04-13T09:03:39.468Z,712
2024-04-13T09:04:55.652Z,1086
2024-04-13T09:06:11.886Z,948
2024-04-13T09:07:28.183Z,1013
2024-04-13T09:08:44.000Z,964
2024-04-13T09:09:59.621Z,957
2024-04-13T09:11:15.916Z,960
2024-04-13T09:12:32.099Z,880
2024-04-13T09:13:48.393Z,1079
2024-04-13T09:15:04.636Z,1422
2024-04-13T09:16:20.823Z,683
2024-04-13T09:17:37.109Z,1007
2024-04-13T09:18:53.347Z,961
2024-04-13T09:20:09.601Z,1004
2024-04-13T09:21:25.765Z,1391
2024-04-13T09:22:42.064Z,579
2024-04-13T09:23:58.241Z,1101
2024-04-13T09:25:14.555Z,956
2024-04-13T09:26:29.733Z,1052
2024-04-13T09:27:45.989Z,1151
2024-04-13T09:29:02.215Z,1016
2024-04-13T09:30:18.523Z,1053
2024-04-13T09:31:34.685Z,993
2024-04-13T09:32:50.932Z,1026
2024-04-13T09:34:07.164Z,1079
2024-04-13T09:35:23.417Z,1259
2024-04-13T09:36:39.720Z,1129
2024-04-13T09:37:55.881Z,1037
2024-04-13T09:39:12.186Z,1010
2024-04-13T09:40:28.434Z,1013
2024-04-13T09:41:44.667Z,1644
2024-04-13T09:42:59.858Z,1271
2024-04-13T09:44:16.092Z,726
2024-04-13T09:45:32.337Z,1252
2024-04-13T09:46:48.580Z,1251
2024-04-13T09:48:04.827Z,1417
2024-04-13T09:49:21.046Z,1639
2024-04-13T09:50:37.351Z,773
2024-04-13T09:51:53.604Z,1304
2024-04-13T09:53:09.777Z,1186
2024-04-13T09:54:26.004Z,1185
2024-04-13T09:55:42.243Z,1627
2024-04-13T09:56:58.551Z,1048
2024-04-13T09:58:14.722Z,1567
2024-04-13T09:59:29.983Z,1248
2024-04-13T10:00:46.284Z,743
2024-04-13T10:02:02.467Z,1441
2024-04-13T10:03:18.764Z,1427
2024-04-13T10:04:34.943Z,1356
2024-04-13T10:05:51.235Z,1317
2024-04-13T10:07:07.474Z,1309
2024-04-13T10:08:23.720Z,1426
2024-04-13T10:09:39.000Z,1472
2024-04-13T10:10:56.195Z,1481
2024-04-13T10:12:12.000Z,1514
2024-04-13T10:13:28.675Z,1469
2024-04-13T10:14:44.000Z,1601
2024-04-13T10:16:00.105Z,1646
2024-04-13T10:17:16.332Z,1842
2024-04-13T10:18:32.579Z,1773
2024-04-13T10:19:48.886Z,1731
2024-04-13T10:21:05.053Z,1814
2024-04-13T10:22:21.375Z,2066
2024-04-13T10:23:37.546Z,2242
2024-04-13T10:24:53.772Z,2054
2024-04-13T10:26:10.076Z,1888
2024-04-13T10:27:26.321Z,2044
2024-04-13T10:28:42.486Z,2278
2024-04-13T10:29:58.732Z,1883
2024-04-13T10:31:15.051Z,3278
2024-04-13T10:32:30.225Z,617
2024-04-13T10:33:46.474Z,2300
2024-04-13T10:35:02.709Z,2238
2024-04-13T10:36:18.959Z,2365
2024-04-13T10:37:35.251Z,2157
2024-04-13T10:38:51.422Z,2389
2024-04-13T10:40:07.673Z,2704
2024-04-13T10:41:23.911Z,3938
2024-04-13T10:42:40.213Z,1236
2024-04-13T10:43:56.000Z,2054
2024-04-13T10:45:12.000Z,2262
2024-04-13T10:46:28.000Z,2446
2024-04-13T10:47:45.116Z,3414
2024-04-13T10:49:00.430Z,1242
2024-04-13T10:50:16.673Z,2799
2024-04-13T10:51:32.917Z,2990
2024-04-13T10:52:49.163Z,2610
2024-04-13T10:54:05.401Z,3002
2024-04-13T10:55:21.577Z,2546
2024-04-13T10:56:37.800Z,2763
2024-04-13T10:57:54.121Z,2997
2024-04-13T10:59:10.350Z,2999
2024-04-13T11:00:26.528Z,2710
2024-04-13T11:01:42.831Z,3564
2024-04-13T11:02:59.013Z,3657
2024-04-13T11:04:15.325Z,709
2024-04-13T11:05:30.502Z,2617
2024-04-13T11:06:46.813Z,2398
2024-04-13T11:08:03.049Z,4329
2024-04-13T11:09:19.217Z,1720
2024-04-13T11:10:35.532Z,774
2024-04-13T11:11:51.770Z,4510
2024-04-13T11:13:07.944Z,1744
2024-04-13T11:14:24.175Z,2079
2024-04-13T11:15:40.427Z,1677
2024-04-13T11:16:56.656Z,846
2024-04-13T11:18:12.973Z,2065
2024-04-13T11:19:29.136Z,3782
2024-04-13T11:20:45.449Z,3304
2024-04-13T11:22:01.738Z,3540
2024-04-13T11:23:17.980Z,3101
2024-04-13T11:24:34.228Z,3452
2024-04-13T11:25:50.467Z,2539
2024-04-13T11:27:06.701Z,2842
2024-04-13T11:28:23.015Z,2967
2024-04-13T11:29:39.190Z,3205
2024-04-13T11:30:55.504Z,3389
2024-04-13T11:32:11.667Z,3599
2024-04-13T11:33:27.903Z,3601
2024-04-13T11:34:44.212Z,3186
2024-04-13T11:36:00.393Z,3586
2024-04-13T11:37:16.693Z,4142
2024-04-13T11:38:31.951Z,3981
2024-04-13T11:39:48.124Z,2930
2024-04-13T11:41:04.435Z,3444
2024-04-13T11:42:20.597Z,3636
2024-04-13T11:43:36.917Z,3775
2024-04-13T11:44:53.078Z,3756
2024-04-13T11:46:09.316Z,4119
2024-04-13T11:47:25.562Z,4303
2024-04-13T11:48:41.799Z,4868
2024-04-13T11:49:58.049Z,4012
2024-04-13T11:51:14.345Z,3335
2024-04-13T11:52:30.513Z,3855
2024-04-13T11:53:46.827Z,3839
2024-04-13T11:55:02.021Z,4277
2024-04-13T11:56:18.258Z,4541
2024-04-13T11:57:34.564Z,970
2024-04-13T11:58:50.804Z,4896
2024-04-13T12:00:07.042Z,893
2024-04-13T12:01:23.276Z,4149
2024-04-13T12:02:38.471Z,4505
2024-04-13T12:03:54.717Z,1190
2024-04-13T12:05:10.945Z,4080
2024-04-13T12:06:27.260Z,4152
2024-04-13T12:07:43.425Z,2745
2024-04-13T12:08:59.743Z,4388
2024-04-13T12:10:15.910Z,4246
2024-04-13T12:11:32.000Z,5659
2024-04-13T12:12:48.463Z,2149
2024-04-13T12:14:04.621Z,2132
2024-04-13T12:15:20.000Z,963
2024-04-13T12:16:37.110Z,4861
2024-04-13T12:17:53.342Z,4694
2024-04-13T12:19:08.679Z,4841
2024-04-13T12:20:24.853Z,6018
2024-04-13T12:21:41.079Z,1589
2024-04-13T12:22:57.398Z,4276
2024-04-13T12:24:13.631Z,4177
2024-04-13T12:25:29.793Z,5354
2024-04-13T12:26:46.031Z,4467
2024-04-13T12:28:02.000Z,4110
2024-04-13T12:29:18.597Z,3996
2024-04-13T12:30:34.758Z,5165
2024-04-13T12:31:51.066Z,4744
2024-04-13T12:33:07.243Z,4911
2024-04-13T12:34:23.559Z,4597
2024-04-13T12:35:38.739Z,4706
2024-04-13T12:36:54.971Z,4015
2024-04-13T12:38:11.290Z,2661
2024-04-13T12:39:27.452Z,3887
2024-04-13T12:40:43.762Z,3697
2024-04-13T12:41:59.921Z,3943
2024-04-13T12:43:16.176Z,4137
2024-04-13T12:44:32.478Z,2737
2024-04-13T12:45:48.000Z,4844
2024-04-13T12:47:04.956Z,5375
2024-04-13T12:48:21.121Z,1077
2024-04-13T12:49:37.439Z,4001
2024-04-13T12:50:53.681Z,3962
2024-04-13T12:52:08.854Z,6483
2024-04-13T12:53:25.173Z,1202
2024-04-13T12:54:41.338Z,6001
2024-04-13T12:55:57.651Z,2460
2024-04-13T12:57:13.810Z,1044
2024-04-13T12:58:30.051Z,3959
2024-04-13T12:59:46.294Z,3653
2024-04-13T13:01:02.607Z,4049
2024-04-13T13:02:18.777Z,3045
2024-04-13T13:03:35.084Z,4364
2024-04-13T13:04:51.000Z,3714
2024-04-13T13:06:07.495Z,3709
2024-04-13T13:07:23.000Z,3760
2024-04-13T13:08:38.986Z,3874
2024-04-13T13:09:55.225Z,3986
2024-04-13T13:11:11.549Z,3514
2024-04-13T13:12:27.701Z,4052
2024-04-13T13:13:44.029Z,4362
2024-04-13T13:15:00.267Z,5183
2024-04-13T13:16:16.501Z,4395
2024-04-13T13:17:32.735Z,4383
2024-04-13T13:18:48.978Z,4349
2024-04-13T13:20:05.151Z,3821
2024-04-13T13:21:21.378Z,4798
2024-04-13T13:22:37.616Z,4730
2024-04-13T13:23:53.853Z,5499
2024-04-13T13:25:09.126Z,4568
2024-04-13T13:26:25.440Z,4066
2024-04-13T13:27:41.599Z,5418
2024-04-13T13:28:57.907Z,5518
2024-04-13T13:30:14.149Z,5248
2024-04-13T13:31:30.305Z,5718
2024-04-13T13:32:46.619Z,5470
2024-04-13T13:34:02.867Z,5341
2024-04-13T13:35:19.032Z,4679
2024-04-13T13:36:35.352Z,4559
2024-04-13T13:37:51.497Z,3898
2024-04-13T13:39:07.827Z,5396
2024-04-13T13:40:23.979Z,4759
2024-04-13T13:41:39.229Z,4724
2024-04-13T13:42:55.479Z,4913
2024-04-13T13:44:11.706Z,4521
2024-04-13T13:45:28.036Z,3553
2024-04-13T13:46:44.199Z,4685
2024-04-13T13:48:00.506Z,4557
2024-04-13T13:49:16.664Z,4282
2024-04-13T13:50:32.912Z,4225
2024-04-13T13:51:49.223Z,3437
2024-04-13T13:53:05.384Z,4035
2024-04-13T13:54:21.625Z,4102
2024-04-13T13:55:37.944Z,4211
2024-04-13T13:56:54.185Z,3844
2024-04-13T13:58:09.351Z,4684
2024-04-13T13:59:25.596Z,3451
2024-04-13T14:00:41.914Z,3173
2024-04-13T14:01:58.165Z,3883
2024-04-13T14:03:14.399Z,3536
2024-04-13T14:04:30.551Z,3242
2024-04-13T14:05:46.798Z,3240
2024-04-13T14:07:03.033Z,3036
2024-04-13T14:08:19.265Z,3167
2024-04-13T14:09:35.519Z,3601
2024-04-13T14:10:51.827Z,3385
2024-04-13T14:12:07.982Z,3641
2024-04-13T14:13:24.231Z,3705
2024-04-13T14:14:39.478Z,3858
2024-04-13T14:15:55.810Z,3722
2024-04-13T14:17:12.043Z,3597
2024-04-13T14:18:28.209Z,3075
2024-04-13T14:19:44.440Z,3065
2024-04-13T14:21:00.764Z,2589
2024-04-13T14:22:16.922Z,3877
2024-04-13T14:23:33.229Z,3682
2024-04-13T14:24:49.398Z,3494
2024-04-13T14:26:05.706Z,2884
2024-04-13T14:27:21.866Z,3883
2024-04-13T14:28:38.194Z,2931
2024-04-13T14:29:54.429Z,3048
2024-04-13T14:31:09.687Z,3842
2024-04-13T14:32:25.927Z,3375
2024-04-13T14:33:42.157Z,3683
2024-04-13T14:34:58.396Z,3366
2024-04-13T14:36:14.554Z,2002
2024-04-13T14:37:30.878Z,3175
2024-04-13T14:38:47.114Z,3046
2024-04-13T14:40:03.362Z,3163
2024-04-13T14:41:19.520Z,3764
2024-04-13T14:42:35.752Z,5011
2024-04-13T14:43:51.997Z,5345
2024-04-13T14:45:08.223Z,3581
2024-04-13T14:46:24.464Z,3150
2024-04-13T14:47:39.722Z,2388
2024-04-13T14:48:56.000Z,3099
2024-04-13T14:50:12.282Z,3339
2024-04-13T14:51:28.453Z,2377
2024-04-13T14:52:44.676Z,2240
2024-04-13T14:54:00.914Z,2094
2024-04-13T14:55:17.159Z,1433
2024-04-13T14:56:33.481Z,2025
2024-04-13T14:57:49.718Z,2060
2024-04-13T14:59:05.904Z,2088
2024-04-13T15:00:22.152Z,2009
2024-04-13T15:01:38.392Z,2531
2024-04-13T15:02:54.621Z,2685
2024-04-13T15:04:09.877Z,1800
2024-04-13T15:05:26.132Z,1939
2024-04-13T15:06:42.000Z,3568
2024-04-13T15:07:58.599Z,4369
2024-04-13T15:09:14.834Z,3660
2024-04-13T15:10:31.089Z,2633
2024-04-13T15:11:47.317Z,2393
2024-04-13T15:13:03.552Z,2457
2024-04-13T15:14:19.799Z,2206
2024-04-13T15:15:36.037Z,1308
2024-04-13T15:16:52.265Z,3472
2024-04-13T15:18:08.513Z,4027
2024-04-13T15:19:24.764Z,4338
2024-04-13T15:20:40.011Z,4239
2024-04-13T15:21:56.250Z,4266
2024-04-13T15:23:12.000Z,4683
2024-04-13T15:24:28.725Z,4897
2024-04-13T15:25:44.959Z,2525
2024-04-13T15:27:01.000Z,3421
2024-04-13T15:28:17.439Z,3595
2024-04-13T15:29:33.686Z,3798
2024-04-13T15:30:49.919Z,3901
2024-04-13T15:32:06.155Z,2567
2024-04-13T15:33:22.390Z,7292
2024-04-13T15:34:38.633Z,4528
2024-04-13T15:35:54.882Z,2993
2024-04-13T15:37:10.128Z,4150
2024-04-13T15:38:26.377Z,2766
2024-04-13T15:39:42.618Z,2918
2024-04-13T15:40:58.858Z,5786
2024-04-13T15:42:15.000Z,5521
2024-04-13T15:43:31.331Z,4243
2024-04-13T15:44:47.564Z,1252
2024-04-13T15:46:03.000Z,3984
2024-04-13T15:47:20.038Z,5641
2024-04-13T15:48:36.284Z,1607
2024-04-13T15:49:52.533Z,3530
2024-04-13T15:51:08.770Z,2410
2024-04-13T15:52:25.005Z,3041
2024-04-13T15:53:40.257Z,1811
2024-04-13T15:54:56.507Z,2161
2024-04-13T15:56:12.736Z,2989
2024-04-13T15:57:28.000Z,3319
2024-04-13T15:58:45.210Z,3889
2024-04-13T16:00:01.000Z,4741
2024-04-13T16:01:17.691Z,4109
2024-04-13T16:02:33.933Z,5843
2024-04-13T16:03:50.000Z,4677
2024-04-13T16:05:06.416Z,2383
2024-04-13T16:06:22.646Z,1574
2024-04-13T16:07:38.879Z,1262
2024-04-13T16:08:55.121Z,1077
2024-04-13T16:10:10.376Z,1792
2024-04-13T16:11:26.615Z,1043
2024-04-13T16:12:42.000Z,946
2024-04-13T16:13:59.098Z,2357
2024-04-13T16:15:15.341Z,1146
2024-04-13T16:16:31.581Z,2583
2024-04-13T16:17:46.843Z,5101
2024-04-13T16:19:03.071Z,3352
2024-04-13T16:20:19.318Z,3657
2024-04-13T16:21:35.558Z,1472
2024-04-13T16:22:51.788Z,1540
2024-04-13T16:24:08.042Z,1213
2024-04-13T16:25:24.271Z,1289
2024-04-13T16:26:40.509Z,1375
2024-04-13T16:27:56.750Z,1266
2024-04-13T16:29:12.991Z,1091
2024-04-13T16:30:29.223Z,953
2024-04-13T16:31:45.462Z,899
2024-04-13T16:33:01.714Z,1204
2024-04-13T16:34:16.000Z,970
2024-04-13T16:35:33.203Z,938
2024-04-13T16:36:49.000Z,901
2024-04-13T16:38:05.000Z,737
2024-04-13T16:39:21.926Z,593
2024-04-13T16:40:38.171Z,648
2024-04-13T16:41:54.396Z,503
2024-04-13T16:43:10.644Z,1916
2024-04-13T16:44:26.878Z,1353
2024-04-13T16:45:43.135Z,841
2024-04-13T16:46:59.357Z,610
2024-04-13T16:48:15.616Z,520
2024-04-13T16:49:31.847Z,1363
2024-04-13T16:50:47.097Z,944
2024-04-13T16:52:03.347Z,651
2024-04-13T16:53:19.579Z,652
2024-04-13T16:54:35.819Z,734
2024-04-13T16:55:52.066Z,1074
2024-04-13T16:57:08.301Z,504
2024-04-13T16:58:24.543Z,1150
2024-04-13T16:59:40.775Z,956
2024-04-13T17:00:57.007Z,614
2024-04-13T17:02:13.258Z,402
2024-04-13T17:03:29.497Z,518
2024-04-13T17:04:45.746Z,698
2024-04-13T17:06:01.982Z,1682
2024-04-13T17:07:17.228Z,1818
2024-04-13T17:08:33.476Z,762
2024-04-13T17:09:49.716Z,612
2024-04-13T17:11:05.950Z,890
2024-04-13T17:12:22.201Z,622
2024-04-13T17:13:38.430Z,663
2024-04-13T17:14:54.665Z,530
2024-04-13T17:16:10.912Z,491
2024-04-13T17:17:27.143Z,474
2024-04-13T17:18:43.381Z,450
2024-04-13T17:19:59.628Z,429
2024-04-13T17:21:15.873Z,412
2024-04-13T17:22:32.103Z,427
2024-04-13T17:23:47.360Z,415
2024-04-13T17:25:03.601Z,375
2024-04-13T17:26:19.000Z,352
2024-04-13T17:27:36.096Z,347
2024-04-13T17:28:52.317Z,306
2024-04-13T17:30:08.558Z,271
2024-04-13T17:31:24.793Z,291
2024-04-13T17:32:41.050Z,280